Latest Weather Observations for Cerberus

IDV60901

Issued at 9:51 am EDT Tuesday 31 March 2015 (issued every 10 minutes, with the page automatically refreshed every 10 minutes)

About weather observations | Map of Melbourne area stations | Latest observations for Melbourne area | Other Formats
Station Details ID: 086361 Name: CERBERUS Lat: -38.36 Lon: 145.18 Height: 12.69 m
Data from the previous 72 hours. | See also: Recent months at Cerberus
Date/Time
EDT
Tmp

°C
App
Tmp
°C
Dew
Point
°C
Rel
Hum
%
Delta-T

°C
Wind Press
QNH
hPa
Press
MSL
hPa
Rain
since
9 am
mm
Dir
 
Spd
km/h
Gust
km/h
Spd
kts
Gust
kts
31/09:30am 13.8 14.7 12.9 94 0.5 CALM 0 2 0 1 1026.9 1026.8 0.0
31/09:00am 12.0 12.4 11.1 94 0.5 CALM 0 0 0 0 1026.8 1026.7 0.0
31/08:30am 9.1 8.3 8.2 94 0.4 SSW 2 2 1 1 1026.7 1026.6 0.0
31/08:00am 7.4 6.6 6.3 93 0.5 CALM 0 0 0 0 1026.4 1026.3 0.0
31/07:30am 6.9 5.9 5.7 92 0.5 CALM 0 0 0 0 1026.1 1026.0 0.0
31/07:00am 7.2 6.3 6.1 93 0.5 CALM 0 0 0 0 1025.8 1025.7 0.0
31/06:30am 7.0 6.0 5.8 92 0.5 CALM 0 0 0 0 1025.5 1025.4 0.0
31/06:00am 6.8 5.8 5.6 92 0.5 CALM 0 0 0 0 1025.5 1025.4 0.0
31/05:30am 7.3 6.4 6.1 92 0.5 CALM 0 0 0 0 1025.4 1025.3 0.0
31/05:00am 7.2 6.3 6.0 92 0.5 CALM 0 0 0 0 1025.3 1025.2 0.0
31/04:30am 7.8 7.0 6.6 92 0.6 CALM 0 0 0 0 1025.3 1025.2 0.0
31/04:00am 7.5 6.6 6.1 91 0.6 CALM 0 0 0 0 1025.5 1025.4 0.0
31/03:30am 8.3 7.2 7.1 92 0.6 SSW 2 4 1 2 1025.7 1025.6 0.0
31/03:00am 8.2 7.5 6.8 91 0.6 CALM 0 0 0 0 1025.8 1025.7 0.0
31/02:30am 8.6 8.0 7.4 92 0.6 CALM 0 0 0 0 1026.0 1025.9 0.0
31/02:00am 8.9 8.3 7.5 91 0.7 CALM 0 0 0 0 1026.1 1026.0 0.0
31/01:30am 9.1 8.6 7.7 91 0.7 CALM 0 0 0 0 1026.3 1026.2 0.0
31/01:00am 9.5 9.1 8.1 91 0.7 CALM 0 0 0 0 1026.3 1026.2 0.0
31/12:30am 9.9 9.5 8.3 90 0.8 CALM 0 0 0 0 1026.3 1026.2 0.0
31/12:00am 10.2 9.9 8.6 90 0.8 CALM 0 0 0 0 1026.3 1026.2 0.0
 
Date/Time
EDT
Tmp

°C
App
Tmp
°C
Dew
Point
°C
Rel
Hum
%
Delta-T

°C
Wind Press
QNH
hPa
Press
MSL
hPa
Rain
since
9 am
mm
Dir
 
Spd
km/h
Gust
km/h
Spd
kts
Gust
kts
30/11:30pm 10.5 10.2 8.8 89 0.8 CALM 0 0 0 0 1026.6 1026.5 0.0
30/11:00pm 11.0 10.9 9.3 89 0.8 CALM 0 2 0 1 1026.6 1026.5 0.0
30/10:30pm 11.4 10.6 9.7 89 0.9 SSW 4 6 2 3 1026.6 1026.5 0.0
30/10:00pm 11.8 11.8 9.9 88 1.0 CALM 0 0 0 0 1026.6 1026.5 0.0
30/09:30pm 12.4 12.5 10.3 87 1.1 CALM 0 0 0 0 1026.5 1026.4 0.0
30/09:00pm 13.3 13.6 10.8 85 1.3 CALM 0 0 0 0 1026.3 1026.2 0.0
30/08:30pm 13.6 13.5 10.8 83 1.5 SSW 2 4 1 2 1026.0 1025.9 0.0
30/08:00pm 14.6 14.3 11.4 81 1.7 SSW 4 4 2 2 1025.7 1025.6 0.0
30/07:30pm 15.5 15.3 11.7 78 2.1 SSW 4 4 2 2 1025.4 1025.3 0.0
30/07:00pm 16.9 16.6 12.6 76 2.4 SSW 6 9 3 5 1025.1 1025.0 0.0
30/06:30pm 17.7 16.8 12.6 72 2.8 SSW 9 13 5 7 1024.8 1024.7 0.0
30/06:00pm 18.6 17.6 12.4 67 3.4 SSW 9 15 5 8 1024.4 1024.3 0.0
30/05:30pm 19.4 18.4 12.2 63 4.0 SSW 9 17 5 9 1024.1 1024.0 0.0
30/05:00pm 19.6 17.5 11.1 58 4.6 S 13 17 7 9 1023.9 1023.8 0.0
30/04:30pm 20.1 17.9 10.8 55 5.1 S 13 19 7 10 1023.8 1023.7 0.0
30/04:00pm 19.8 16.9 9.7 52 5.4 S 15 24 8 13 1023.8 1023.7 0.0
30/03:30pm 19.5 16.7 11.3 59 4.5 SSW 17 22 9 12 1023.9 1023.8 0.0
30/03:00pm 20.0 17.1 11.0 56 4.9 S 17 22 9 12 1023.9 1023.8 0.0
30/02:30pm 20.7 18.2 11.1 54 5.3 SSW 15 24 8 13 1024.0 1023.9 0.0
30/02:00pm 20.4 18.0 11.3 56 5.0 S 15 22 8 12 1024.1 1024.0 0.0
30/01:30pm 19.8 17.5 11.6 59 4.5 SSW 15 20 8 11 1024.3 1024.2 0.0
30/01:00pm 19.8 18.1 12.6 63 4.0 S 13 20 7 11 1024.5 1024.4 0.0
30/12:30pm 20.9 19.5 12.3 58 4.8 SSW 11 17 6 9 1024.5 1024.4 0.0
30/12:00pm 20.5 19.5 10.9 54 5.2 WNW 7 17 4 9 1024.7 1024.6 0.0
30/11:30am 20.5 20.0 12.5 60 4.5 NW 7 9 4 5 1024.9 1024.8 0.0
30/11:00am 19.3 18.8 12.8 66 3.6 NNW 7 13 4 7 1024.9 1024.8 0.0
30/10:30am 18.4 18.3 13.9 75 2.6 NNW 7 11 4 6 1024.8 1024.7 0.0
30/10:00am 17.1 17.3 14.7 86 1.4 NNW 7 11 4 6 1024.7 1024.6 0.0
30/09:30am 15.5 16.0 14.0 91 0.8 N 4 6 2 3 1024.7 1024.6 0.0
30/09:00am 12.5 11.8 11.4 93 0.6 N 6 7 3 4 1024.4 1024.3 0.0
30/08:30am 10.0 9.8 8.9 93 0.5 CALM 0 0 0 0 1024.2 1024.1 0.0
30/08:00am 6.6 5.2 5.4 92 0.5 S 2 4 1 2 1024.0 1023.9 0.0
30/07:30am 7.5 6.7 6.4 93 0.5 CALM 0 6 0 3 1023.6 1023.5 0.0
30/07:00am 7.2 6.3 6.0 92 0.5 CALM 0 0 0 0 1023.3 1023.2 0.0
30/06:30am 6.6 4.8 5.4 92 0.5 S 4 6 2 3 1023.0 1022.9 0.0
30/06:00am 7.7 6.9 6.5 92 0.5 CALM 0 0 0 0 1022.9 1022.8 0.0
30/05:30am 6.4 4.9 5.0 91 0.6 S 2 4 1 2 1022.7 1022.6 0.0
30/05:00am 7.4 6.5 6.0 91 0.6 CALM 0 0 0 0 1022.6 1022.5 0.0
30/04:30am 7.1 6.1 5.7 91 0.6 CALM 0 0 0 0 1022.7 1022.6 0.0
30/04:00am 7.6 6.7 6.2 91 0.6 CALM 0 0 0 0 1022.7 1022.6 0.0
30/03:30am 7.7 6.5 6.3 91 0.6 S 2 2 1 1 1022.9 1022.8 0.0
30/03:00am 8.3 7.6 6.9 91 0.6 CALM 0 0 0 0 1023.1 1023.0 0.0
30/02:30am 9.0 8.1 7.6 91 0.7 S 2 4 1 2 1023.3 1023.2 0.0
30/02:00am 8.4 6.9 6.9 90 0.7 S 4 6 2 3 1023.5 1023.4 0.0
30/01:30am 10.5 10.0 9.3 92 0.6 S 2 6 1 3 1023.6 1023.5 0.0
30/01:00am 10.2 9.1 8.6 90 0.8 S 4 6 2 3 1023.7 1023.6 0.0
30/12:30am 9.7 8.5 8.1 90 0.8 S 4 4 2 2 1023.7 1023.6 0.0
30/12:00am 11.1 10.3 9.5 90 0.8 S 4 6 2 3 1023.8 1023.7 0.0
 
Date/Time
EDT
Tmp

°C
App
Tmp
°C
Dew
Point
°C
Rel
Hum
%
Delta-T

°C
Wind Press
QNH
hPa
Press
MSL
hPa
Rain
since
9 am
mm
Dir
 
Spd
km/h
Gust
km/h
Spd
kts
Gust
kts
29/11:30pm 11.1 10.2 9.4 89 0.9 S 4 4 2 2 1023.9 1023.8 0.0
29/11:00pm 11.1 10.2 9.2 88 0.9 S 4 6 2 3 1024.0 1023.9 0.0
29/10:30pm 11.3 10.8 9.2 87 1.0 S 2 4 1 2 1023.9 1023.8 0.0
29/10:00pm 11.5 11.3 9.2 86 1.1 CALM 0 0 0 0 1023.8 1023.7 0.0
29/09:30pm 11.8 11.6 9.2 84 1.3 CALM 0 0 0 0 1023.6 1023.5 0.0
29/09:00pm 12.5 12.0 9.3 81 1.6 S 2 2 1 1 1023.3 1023.2 0.0
29/08:30pm 14.4 13.9 10.6 78 2.0 S 4 4 2 2 1022.9 1022.8 0.0
29/08:00pm 15.0 14.0 10.4 74 2.4 S 6 6 3 3 1022.6 1022.5 0.0
29/07:30pm 15.7 14.6 10.5 71 2.7 S 7 11 4 6 1022.2 1022.1 0.0
29/07:00pm 16.8 14.8 10.2 65 3.5 S 11 17 6 9 1021.9 1021.8 0.0
29/06:30pm 17.6 14.7 9.5 59 4.2 SSW 15 20 8 11 1021.4 1021.3 0.0
29/06:00pm 18.3 15.3 9.4 56 4.7 S 15 20 8 11 1021.1 1021.0 0.0
29/05:30pm 18.8 15.7 9.0 53 5.1 S 15 22 8 12 1020.9 1020.8 0.0
29/05:00pm 18.8 15.9 9.6 55 4.9 SSW 15 20 8 11 1020.8 1020.7 0.0
29/04:30pm 19.1 15.1 9.0 52 5.3 S 20 28 11 15 1020.7 1020.6 0.0
29/04:00pm 19.3 15.6 9.5 53 5.2 S 19 28 10 15 1020.8 1020.7 0.0
29/03:30pm 19.9 16.6 9.5 51 5.5 S 17 22 9 12 1021.1 1021.0 0.0
29/03:00pm 20.0 17.0 9.3 50 5.6 SSW 15 24 8 13 1021.2 1021.1 0.0
29/02:30pm 20.7 18.0 9.0 47 6.2 W 13 20 7 11 1021.5 1021.4 0.0
29/02:00pm 20.5 17.2 9.4 49 5.9 W 17 28 9 15 1021.7 1021.6 0.0
29/01:30pm 20.1 16.8 9.7 51 5.6 WNW 17 28 9 15 1022.0 1021.9 0.0
29/01:00pm 20.2 17.7 10.9 55 5.1 W 15 24 8 13 1022.2 1022.1 0.0
29/12:30pm 19.4 15.9 10.1 55 5.0 WNW 19 28 10 15 1022.4 1022.3 0.0
29/12:00pm 19.1 16.8 10.6 58 4.6 WNW 13 20 7 11 1022.5 1022.4 0.0
29/11:30am 18.5 16.7 10.8 61 4.2 WNW 11 19 6 10 1022.6 1022.5 0.0
29/11:00am 17.6 15.8 10.9 65 3.6 NW 11 17 6 9 1022.8 1022.7 0.0
29/10:30am 16.8 15.2 11.5 71 2.9 NNW 11 19 6 10 1022.9 1022.8 0.0
29/10:00am 15.9 14.8 13.2 84 1.5 NW 11 17 6 9 1022.7 1022.6 0.0
29/09:30am 14.7 14.4 13.2 91 0.8 NNW 7 13 4 7 1022.7 1022.6 0.0
29/09:00am 12.8 12.6 11.7 93 0.6 NNW 4 11 2 6 1022.6 1022.5 0.0
29/08:30am 11.1 10.8 10.2 94 0.5 N 2 4 1 2 1022.6 1022.5 0.0
29/08:00am 7.8 6.3 6.9 94 0.4 N 4 6 2 3 1022.3 1022.2 0.0
29/07:30am 6.4 4.6 5.4 93 0.4 N 4 6 2 3 1021.9 1021.8 0.0
29/07:00am 5.4 3.7 4.2 92 0.5 N 2 6 1 3 1021.9 1021.8 0.0
29/06:30am 6.7 5.0 5.7 93 0.4 N 4 6 2 3 1021.5 1021.4 0.0
29/06:00am 7.1 5.4 6.0 93 0.5 N 4 6 2 3 1021.0 1020.9 0.0
29/05:30am 6.0 3.7 4.8 92 0.5 N 6 6 3 3 1020.7 1020.6 0.0
29/05:00am 6.9 5.9 5.7 92 0.5 CALM 0 0 0 0 1020.8 1020.7 0.0
29/04:30am 7.4 6.5 6.2 92 0.5 CALM 0 0 0 0 1020.7 1020.6 0.0
29/04:00am 6.5 5.4 5.1 91 0.6 CALM 0 2 0 1 1020.6 1020.5 0.0
29/03:30am 7.6 6.4 6.4 92 0.5 N 2 4 1 2 1020.7 1020.6 0.0
29/03:00am 6.8 5.8 5.4 91 0.6 CALM 0 0 0 0 1021.1 1021.0 0.0
29/02:30am 7.3 6.0 5.9 91 0.6 N 2 4 1 2 1021.4 1021.3 0.0
29/02:00am 7.2 5.5 5.8 91 0.6 N 4 6 2 3 1021.6 1021.5 0.0
29/01:30am 7.6 6.7 6.2 91 0.6 CALM 0 0 0 0 1021.9 1021.8 0.0
29/01:00am 8.0 7.2 6.6 91 0.6 CALM 0 0 0 0 1022.1 1022.0 0.0
29/12:30am 7.6 5.9 5.7 88 0.9 N 4 7 2 4 1022.3 1022.2 0.0
29/12:00am 8.0 6.0 6.3 89 0.8 N 6 7 3 4 1022.6 1022.5 0.0
 
Date/Time
EDT
Tmp

°C
App
Tmp
°C
Dew
Point
°C
Rel
Hum
%
Delta-T

°C
Wind Press
QNH
hPa
Press
MSL
hPa
Rain
since
9 am
mm
Dir
 
Spd
km/h
Gust
km/h
Spd
kts
Gust
kts
28/11:30pm 8.5 7.4 6.8 89 0.8 SSE 2 6 1 3 1022.5 1022.4 0.0
28/11:00pm 8.6 7.9 6.9 89 0.8 CALM 0 0 0 0 1022.6 1022.5 0.0
28/10:30pm 8.8 8.1 6.9 88 0.9 CALM 0 0 0 0 1022.6 1022.5 0.0
28/10:00pm 9.3 8.7 7.3 87 0.9 CALM 0 0 0 0 1022.8 1022.7 0.0
28/09:30pm 10.0 9.4 7.6 85 1.1 CALM 0 0 0 0 1022.6 1022.5 0.0
28/09:00pm 10.3 9.7 7.5 83 1.3 CALM 0 0 0 0 1022.6 1022.5 0.0
28/08:30pm 11.5 10.8 8.4 81 1.5 S 2 2 1 1 1022.5 1022.4 0.0
28/08:00pm 13.0 12.0 8.7 75 2.1 S 4 4 2 2 1022.2 1022.1 0.0
28/07:30pm 14.1 13.1 8.9 71 2.6 S 4 6 2 3 1022.3 1022.2 0.0
28/07:00pm 15.4 14.6 9.5 68 3.0 S 4 6 2 3 1022.1 1022.0 0.0
28/06:30pm 16.6 15.1 9.3 62 3.8 SSE 7 9 4 5 1022.3 1022.2 0.0
28/06:00pm 17.1 16.1 10.2 64 3.6 SE 6 9 3 5 1022.3 1022.2 0.0
28/05:30pm 16.3 15.1 10.4 68 3.1 E 7 11 4 6 1022.4 1022.3 0.0
28/05:00pm 16.3 15.1 10.2 67 3.2 E 7 13 4 7 1022.8 1022.7 0.0
28/04:30pm 16.3 15.8 10.6 69 3.0 E 4 6 2 3 1022.9 1022.8 0.0
28/04:00pm 16.3 15.4 10.8 70 2.9 E 6 9 3 5 1023.2 1023.1 0.0
28/03:30pm 15.7 14.8 10.7 72 2.7 E 6 7 3 4 1023.2 1023.1 0.0
28/03:00pm 15.7 14.9 10.9 73 2.5 ESE 6 7 3 4 1023.6 1023.5 0.0
28/02:30pm 15.5 15.7 10.7 73 2.5 CALM 0 4 0 2 1023.9 1023.8 0.0
28/02:00pm 15.2 15.2 11.0 76 2.2 S 2 4 1 2 1024.2 1024.1 0.0
28/01:30pm 14.8 14.4 11.0 78 2.0 SW 4 6 2 3 1024.5 1024.4 0.0
28/01:00pm 14.9 14.9 11.3 79 1.9 NW 2 6 1 3 1024.9 1024.8 0.0
28/12:30pm 14.8 14.8 11.2 79 1.9 SSW 2 4 1 2 1025.2 1025.1 0.0
28/12:00pm 14.3 14.3 11.1 81 1.7 SSW 2 4 1 2 1025.4 1025.3 0.0
28/11:30am 14.1 13.2 10.7 80 1.8 SSW 6 13 3 7 1025.4 1025.3 0.0
28/11:00am 14.8 13.7 10.6 76 2.2 SSE 7 13 4 7 1025.3 1025.2 0.0
28/10:30am 16.0 15.1 11.4 74 2.5 NNW 7 11 4 6 1025.5 1025.4 0.0
28/10:00am 14.7 13.8 11.5 81 1.7 NNW 7 9 4 5 1025.6 1025.5 0.0

Latest Capital City Observations: Canberra | Sydney | Melbourne | Brisbane | Adelaide | Perth | Hobart | Darwin

Other Formats:

Comma delimited format used in spreadsheet applications
http://www.bom.gov.au/fwo/IDV60901/IDV60901.94898.axf

JavaScript Object Notation format (JSON) in row-major order
http://www.bom.gov.au/fwo/IDV60901/IDV60901.94898.json